createdAt,value
2023-01-29T00:00:17.438Z,101901.94
2023-01-29T00:02:47.210Z,101894.22
2023-01-29T00:08:04.049Z,101892.59
2023-01-29T00:10:20.921Z,101895.47
2023-01-29T00:10:32.359Z,101895.88
2023-01-29T00:13:01.018Z,101892.50
2023-01-29T00:15:29.875Z,101882.50
2023-01-29T00:17:59.473Z,101893.41
2023-01-29T00:20:27.778Z,101904.63
2023-01-29T00:23:00.263Z,101897.66
2023-01-29T00:25:28.372Z,101898.09
2023-01-29T00:27:56.523Z,101901.69
2023-01-29T00:30:25.299Z,101895.50
2023-01-29T00:32:54.151Z,101904.88
2023-01-29T00:35:25.891Z,101894.41
2023-01-29T00:37:56.103Z,101897.91
2023-01-29T00:40:25.682Z,101904.13
2023-01-29T00:43:11.594Z,101903.88
2023-01-29T00:45:40.124Z,101904.00
2023-01-29T00:48:08.329Z,101911.47
2023-01-29T00:50:39.526Z,101910.69
2023-01-29T00:53:10.426Z,101916.63
2023-01-29T00:55:38.619Z,101918.59
2023-01-29T00:58:06.914Z,101911.03
2023-01-29T01:00:35.201Z,101906.03
2023-01-29T01:03:05.561Z,101911.16
2023-01-29T01:05:34.481Z,101912.97
2023-01-29T01:08:04.080Z,101926.44
2023-01-29T01:10:32.396Z,101909.69
2023-01-29T01:13:03.825Z,101914.38
2023-01-29T01:15:35.299Z,101912.75
2023-01-29T01:18:06.237Z,101910.00
2023-01-29T01:20:36.986Z,101917.69
2023-01-29T01:23:06.571Z,101902.59
2023-01-29T01:25:35.121Z,101906.66
2023-01-29T01:28:03.385Z,101892.69
2023-01-29T01:30:33.284Z,101900.13
2023-01-29T01:33:02.358Z,101898.03
2023-01-29T01:35:30.846Z,101905.00
2023-01-29T01:37:58.940Z,101897.28
2023-01-29T01:40:31.187Z,101908.03
2023-01-29T01:43:00.174Z,101904.31
2023-01-29T01:45:30.095Z,101901.84
2023-01-29T01:48:02.171Z,101900.13
2023-01-29T01:50:35.550Z,101886.94
2023-01-29T01:53:08.268Z,101892.19
2023-01-29T01:55:41.166Z,101885.56
2023-01-29T01:58:13.141Z,101888.03
2023-01-29T02:00:43.447Z,101880.84
2023-01-29T02:03:31.385Z,101876.75
2023-01-29T02:06:19.218Z,101878.56
2023-01-29T02:09:10.789Z,101872.63
2023-01-29T02:11:41.049Z,101867.75
2023-01-29T02:14:09.817Z,101856.97
2023-01-29T02:16:38.471Z,101862.88
2023-01-29T02:19:12.214Z,101859.94
2023-01-29T02:22:09.184Z,101852.03
2023-01-29T02:24:59.289Z,101848.66
2023-01-29T02:27:36.943Z,101849.22
2023-01-29T02:30:10.215Z,101854.69
2023-01-29T02:32:54.830Z,101847.84
2023-01-29T02:35:31.959Z,101846.31
2023-01-29T02:38:13.879Z,101847.06
2023-01-29T02:40:46.903Z,101847.97
2023-01-29T02:43:31.485Z,101849.72
2023-01-29T02:46:12.186Z,101849.09
2023-01-29T02:48:46.329Z,101840.28
2023-01-29T02:51:23.981Z,101844.66
2023-01-29T02:53:59.860Z,101851.06
2023-01-29T02:56:33.550Z,101851.81
2023-01-29T02:59:09.799Z,101844.84
2023-01-29T03:01:47.021Z,101848.22
2023-01-29T03:04:23.253Z,101848.13
2023-01-29T03:06:56.423Z,101866.56
2023-01-29T03:09:32.939Z,101866.22
2023-01-29T03:12:19.907Z,101864.41
2023-01-29T03:15:17.881Z,101873.66
2023-01-29T03:18:13.603Z,101881.88
2023-01-29T03:20:49.321Z,101886.34
2023-01-29T03:23:27.029Z,101886.09
2023-01-29T03:26:17.568Z,101877.50
2023-01-29T03:29:05.331Z,101886.41
2023-01-29T03:31:53.469Z,101883.69
2023-01-29T03:34:34.900Z,101878.56
2023-01-29T03:37:09.476Z,101875.56
2023-01-29T03:39:37.971Z,101873.41
2023-01-29T03:42:17.667Z,101866.16
2023-01-29T03:44:57.714Z,101871.16
2023-01-29T03:48:00.785Z,101889.16
2023-01-29T03:50:39.236Z,101892.19
2023-01-29T03:53:17.754Z,101893.69
2023-01-29T03:55:55.596Z,101897.06
2023-01-29T03:58:30.686Z,101904.59
2023-01-29T04:01:03.968Z,101907.19
2023-01-29T04:03:36.468Z,101906.09
2023-01-29T04:06:14.582Z,101895.34
2023-01-29T04:09:02.703Z,101892.50
2023-01-29T04:11:34.246Z,101878.69
2023-01-29T04:14:06.059Z,101883.38
2023-01-29T04:16:40.207Z,101877.50
2023-01-29T04:19:27.391Z,101869.75
2023-01-29T04:22:06.644Z,101868.69
2023-01-29T04:24:35.896Z,101873.03
2023-01-29T04:27:18.136Z,101885.44
2023-01-29T04:30:02.898Z,101887.09
2023-01-29T04:32:48.042Z,101884.81
2023-01-29T04:35:27.477Z,101877.84
2023-01-29T04:38:02.775Z,101872.53
2023-01-29T04:40:40.402Z,101860.22
2023-01-29T04:43:15.089Z,101848.69
2023-01-29T04:45:57.685Z,101840.53
2023-01-29T04:48:29.643Z,101848.06
2023-01-29T04:51:02.417Z,101838.50
2023-01-29T04:53:39.001Z,101842.97
2023-01-29T04:56:13.383Z,101847.00
2023-01-29T04:58:48.338Z,101834.28
2023-01-29T05:01:19.414Z,101835.34
2023-01-29T05:03:50.657Z,101833.94
2023-01-29T05:06:21.969Z,101846.59
2023-01-29T05:08:52.939Z,101846.28
2023-01-29T05:11:21.837Z,101843.56
2023-01-29T05:13:50.517Z,101857.59
2023-01-29T05:16:23.625Z,101861.53
2023-01-29T05:18:52.328Z,101860.75
2023-01-29T05:21:23.118Z,101867.38
2023-01-29T05:24:15.342Z,101886.34
2023-01-29T05:27:01.734Z,101886.22
2023-01-29T05:29:30.074Z,101893.81
2023-01-29T05:31:58.385Z,101895.13
2023-01-29T05:34:29.532Z,101884.13
2023-01-29T05:36:58.670Z,101880.19
2023-01-29T05:39:28.466Z,101875.53
2023-01-29T05:41:56.619Z,101873.66
2023-01-29T05:44:24.663Z,101855.38
2023-01-29T05:46:53.084Z,101844.38
2023-01-29T05:49:22.767Z,101854.03
2023-01-29T05:51:51.532Z,101848.94
2023-01-29T05:54:20.007Z,101857.66
2023-01-29T05:56:49.546Z,101855.38
2023-01-29T05:59:20.187Z,101861.69
2023-01-29T06:01:50.832Z,101871.06
2023-01-29T06:04:20.702Z,101870.31
2023-01-29T06:06:49.241Z,101871.81
2023-01-29T06:09:17.379Z,101881.53
2023-01-29T06:11:45.562Z,101877.25
2023-01-29T06:14:15.141Z,101868.78
2023-01-29T06:16:43.633Z,101865.09
2023-01-29T06:19:14.566Z,101871.41
2023-01-29T06:21:45.139Z,101873.06
2023-01-29T06:24:13.624Z,101866.53
2023-01-29T06:26:41.994Z,101870.44
2023-01-29T06:29:10.157Z,101870.44
2023-01-29T06:31:41.300Z,101864.56
2023-01-29T06:34:11.078Z,101861.53
2023-01-29T06:36:39.988Z,101856.84
2023-01-29T06:39:08.339Z,101853.78
2023-01-29T06:41:36.750Z,101846.81
2023-01-29T06:44:04.922Z,101860.88
2023-01-29T06:46:33.395Z,101857.72
2023-01-29T06:49:03.330Z,101866.63
2023-01-29T06:51:31.908Z,101859.22
2023-01-29T06:54:00.200Z,101866.97
2023-01-29T06:56:29.372Z,101869.25
2023-01-29T06:58:57.592Z,101864.13
2023-01-29T07:01:35.632Z,101861.38
2023-01-29T07:04:06.624Z,101861.84
2023-01-29T07:06:35.307Z,101858.03
2023-01-29T07:09:04.079Z,101863.91
2023-01-29T07:11:32.637Z,101861.63
2023-01-29T07:14:01.329Z,101875.13
2023-01-29T07:16:29.755Z,101867.63
2023-01-29T07:18:58.065Z,101870.63
2023-01-29T07:21:28.149Z,101880.34
2023-01-29T07:23:56.293Z,101874.44
2023-01-29T07:26:24.911Z,101870.88
2023-01-29T07:28:54.489Z,101871.94
2023-01-29T07:31:22.908Z,101877.25
2023-01-29T07:33:51.571Z,101885.75
2023-01-29T07:36:19.866Z,101887.25
2023-01-29T07:38:51.916Z,101893.50
2023-01-29T07:41:20.566Z,101890.97
2023-01-29T07:43:49.104Z,101897.91
2023-01-29T07:46:17.574Z,101897.50
2023-01-29T07:48:46.749Z,101905.25
2023-01-29T07:51:18.104Z,101908.25
2023-01-29T07:53:47.149Z,101902.72
2023-01-29T07:56:16.790Z,101893.53
2023-01-29T07:58:44.933Z,101900.84
2023-01-29T08:01:14.741Z,101894.38
2023-01-29T08:03:44.440Z,101901.53
2023-01-29T08:06:12.751Z,101896.28
2023-01-29T08:08:41.102Z,101893.47
2023-01-29T08:11:09.864Z,101897.03
2023-01-29T08:13:39.375Z,101896.63
2023-01-29T08:16:08.448Z,101907.28
2023-01-29T08:18:38.437Z,101901.00
2023-01-29T08:21:07.287Z,101902.97
2023-01-29T08:23:35.700Z,101900.25
2023-01-29T08:26:04.564Z,101899.03
2023-01-29T08:28:33.307Z,101899.97
2023-01-29T08:31:03.057Z,101898.81
2023-01-29T08:33:38.963Z,101910.25
2023-01-29T08:36:10.548Z,101907.59
2023-01-29T08:38:38.876Z,101917.50
2023-01-29T08:41:08.080Z,101933.19
2023-01-29T08:43:37.044Z,101936.50
2023-01-29T08:46:07.768Z,101926.84
2023-01-29T08:48:36.297Z,101914.47
2023-01-29T08:51:04.612Z,101899.03
2023-01-29T08:53:33.417Z,101884.69
2023-01-29T08:56:01.919Z,101870.16
2023-01-29T08:58:30.466Z,101863.22
2023-01-29T09:01:06.074Z,101861.06
2023-01-29T09:03:35.993Z,101870.22
2023-01-29T09:06:04.669Z,101877.94
2023-01-29T09:08:33.027Z,101873.06
2023-01-29T09:11:01.689Z,101881.72
2023-01-29T09:13:30.169Z,101883.94
2023-01-29T09:16:00.506Z,101881.63
2023-01-29T09:18:29.614Z,101888.19
2023-01-29T09:20:59.541Z,101889.81
2023-01-29T09:23:28.136Z,101893.88
2023-01-29T09:25:56.767Z,101885.66
2023-01-29T09:28:26.412Z,101898.06
2023-01-29T09:30:54.718Z,101908.72
2023-01-29T09:33:24.662Z,101918.03
2023-01-29T09:35:55.325Z,101923.22
2023-01-29T09:38:28.819Z,101927.50
2023-01-29T09:41:06.491Z,101915.81
2023-01-29T09:43:44.626Z,101922.78
2023-01-29T09:46:21.353Z,101924.31
2023-01-29T09:48:59.873Z,101933.88
2023-01-29T09:51:36.022Z,101937.84
2023-01-29T09:54:19.838Z,101947.41
2023-01-29T09:56:51.746Z,101946.19
2023-01-29T09:59:28.518Z,101947.84
2023-01-29T10:02:07.653Z,101953.31
2023-01-29T10:04:54.335Z,101951.03
2023-01-29T10:07:50.130Z,101948.63
2023-01-29T10:10:30.864Z,101935.25
2023-01-29T10:13:07.880Z,101932.06
2023-01-29T10:15:50.928Z,101934.00
2023-01-29T10:18:41.391Z,101929.78
2023-01-29T10:21:25.314Z,101922.94
2023-01-29T10:23:58.820Z,101925.19
2023-01-29T10:26:30.526Z,101919.16
2023-01-29T10:29:03.904Z,101909.41
2023-01-29T10:31:36.549Z,101910.34
2023-01-29T10:34:14.068Z,101917.03
2023-01-29T10:36:46.048Z,101904.88
2023-01-29T10:39:19.585Z,101903.50
2023-01-29T10:42:05.704Z,101895.78
2023-01-29T10:44:46.666Z,101883.34
2023-01-29T10:47:32.352Z,101871.03
2023-01-29T10:50:16.037Z,101880.16
2023-01-29T10:53:03.873Z,101867.38
2023-01-29T10:55:45.758Z,101868.13
2023-01-29T10:58:28.731Z,101861.13
2023-01-29T11:00:57.881Z,101850.69
2023-01-29T11:03:29.232Z,101850.84
2023-01-29T11:06:05.240Z,101840.53
2023-01-29T11:08:39.325Z,101840.81
2023-01-29T11:11:10.870Z,101840.94
2023-01-29T11:13:48.187Z,101840.94
2023-01-29T11:16:17.140Z,101841.41
2023-01-29T11:18:55.897Z,101829.44
2023-01-29T11:21:26.996Z,101827.00
2023-01-29T11:24:12.710Z,101819.28
2023-01-29T11:26:44.485Z,101816.69
2023-01-29T11:29:34.812Z,101808.97
2023-01-29T11:32:07.322Z,101804.66
2023-01-29T11:34:35.859Z,101808.28
2023-01-29T11:37:08.191Z,101806.19
2023-01-29T11:39:45.284Z,101799.31
2023-01-29T11:42:20.972Z,101781.28
2023-01-29T11:44:51.632Z,101772.66
2023-01-29T11:47:24.315Z,101768.75
2023-01-29T11:49:54.953Z,101774.38
2023-01-29T11:52:29.012Z,101765.13
2023-01-29T11:55:01.908Z,101769.84
2023-01-29T11:57:34.138Z,101761.78
2023-01-29T12:00:08.901Z,101759.59
2023-01-29T12:02:39.833Z,101753.28
2023-01-29T12:05:16.646Z,101749.13
2023-01-29T12:07:49.093Z,101744.94
2023-01-29T12:10:36.774Z,101749.59
2023-01-29T12:13:06.871Z,101738.38
2023-01-29T12:15:41.866Z,101744.44
2023-01-29T12:18:17.577Z,101728.34
2023-01-29T12:20:49.220Z,101736.03
2023-01-29T12:23:28.475Z,101728.53
2023-01-29T12:26:03.868Z,101734.28
2023-01-29T12:28:45.720Z,101724.38
2023-01-29T12:31:27.471Z,101718.78
2023-01-29T12:34:04.120Z,101727.59
2023-01-29T12:36:38.081Z,101722.59
2023-01-29T12:39:06.620Z,101715.41
2023-01-29T12:41:42.480Z,101711.00
2023-01-29T12:44:19.726Z,101705.47
2023-01-29T12:46:54.712Z,101713.69
2023-01-29T12:49:29.934Z,101715.97
2023-01-29T12:52:02.372Z,101706.91
2023-01-29T12:54:36.753Z,101703.81
2023-01-29T12:57:11.543Z,101686.81
2023-01-29T12:59:44.826Z,101694.00
2023-01-29T13:02:25.439Z,101685.56
2023-01-29T13:05:01.003Z,101680.44
2023-01-29T13:07:33.266Z,101679.75
2023-01-29T13:10:08.691Z,101671.69
2023-01-29T13:12:39.611Z,101668.97
2023-01-29T13:15:19.219Z,101665.72
2023-01-29T13:17:54.149Z,101663.41
2023-01-29T13:20:27.997Z,101662.19
2023-01-29T13:23:02.428Z,101668.63
2023-01-29T13:25:30.563Z,101655.59
2023-01-29T13:27:59.224Z,101658.69
2023-01-29T13:30:29.553Z,101653.28
2023-01-29T13:33:09.522Z,101658.63
2023-01-29T13:35:41.782Z,101655.63
2023-01-29T13:38:26.547Z,101651.69
2023-01-29T13:40:57.776Z,101653.28
2023-01-29T13:43:26.301Z,101647.22
2023-01-29T13:45:56.036Z,101632.22
2023-01-29T13:48:27.723Z,101635.31
2023-01-29T13:50:59.138Z,101630.34
2023-01-29T13:53:30.209Z,101618.09
2023-01-29T13:56:30.329Z,101616.75
2023-01-29T13:59:02.415Z,101619.50
2023-01-29T14:02:03.876Z,101619.19
2023-01-29T14:04:35.020Z,101627.91
2023-01-29T14:07:04.545Z,101622.78
2023-01-29T14:09:54.817Z,101620.72
2023-01-29T14:12:42.821Z,101625.41
2023-01-29T14:15:33.477Z,101629.69
2023-01-29T14:18:07.306Z,101618.78
2023-01-29T14:20:45.865Z,101610.78
2023-01-29T14:23:31.214Z,101610.78
2023-01-29T14:26:02.321Z,101604.56
2023-01-29T14:28:33.254Z,101607.50
2023-01-29T14:31:02.237Z,101606.31
2023-01-29T14:33:36.515Z,101599.94
2023-01-29T14:36:10.430Z,101594.81
2023-01-29T14:38:41.302Z,101590.38
2023-01-29T14:41:26.435Z,101583.69
2023-01-29T14:44:54.020Z,101596.78
2023-01-29T14:47:55.308Z,101591.63
2023-01-29T14:50:50.932Z,101588.56
2023-01-29T14:53:25.563Z,101591.06
2023-01-29T14:55:59.094Z,101589.41
2023-01-29T14:58:35.945Z,101589.09
2023-01-29T15:01:08.233Z,101593.63
2023-01-29T15:03:45.596Z,101596.41
2023-01-29T15:06:19.459Z,101596.56
2023-01-29T15:08:54.889Z,101594.25
2023-01-29T15:11:37.517Z,101583.03
2023-01-29T15:14:27.053Z,101581.72
2023-01-29T15:17:08.201Z,101584.28
2023-01-29T15:19:40.539Z,101588.56
2023-01-29T15:22:14.484Z,101586.13
2023-01-29T15:24:44.347Z,101589.59
2023-01-29T15:27:17.062Z,101586.91
2023-01-29T15:29:52.749Z,101586.63
2023-01-29T15:32:30.663Z,101579.97
2023-01-29T15:35:01.895Z,101579.22
2023-01-29T15:37:34.264Z,101576.50
2023-01-29T15:40:03.449Z,101583.63
2023-01-29T15:42:46.813Z,101568.78
2023-01-29T15:45:27.697Z,101571.50
2023-01-29T15:48:00.660Z,101576.22
2023-01-29T15:50:32.375Z,101568.22
2023-01-29T15:53:04.836Z,101561.84
2023-01-29T15:55:34.224Z,101551.97
2023-01-29T15:58:05.005Z,101551.84
2023-01-29T16:00:33.384Z,101540.31
2023-01-29T16:03:02.096Z,101545.03
2023-01-29T16:05:33.273Z,101547.59
2023-01-29T16:08:02.417Z,101542.47
2023-01-29T16:10:33.586Z,101544.88
2023-01-29T16:13:02.003Z,101546.69
2023-01-29T16:15:33.700Z,101543.22
2023-01-29T16:18:03.703Z,101525.94
2023-01-29T16:20:37.517Z,101533.06
2023-01-29T16:23:07.631Z,101528.53
2023-01-29T16:25:39.836Z,101526.38
2023-01-29T16:28:11.219Z,101533.63
2023-01-29T16:30:41.496Z,101528.03
2023-01-29T16:33:15.732Z,101516.38
2023-01-29T16:35:51.923Z,101517.56
2023-01-29T16:38:30.531Z,101515.59
2023-01-29T16:41:15.441Z,101516.94
2023-01-29T16:43:50.733Z,101514.97
2023-01-29T16:46:26.852Z,101508.19
2023-01-29T16:48:55.408Z,101509.06
2023-01-29T16:51:27.897Z,101508.44
2023-01-29T16:54:09.228Z,101524.13
2023-01-29T16:56:39.474Z,101517.16
2023-01-29T16:59:08.483Z,101526.66
2023-01-29T17:01:37.804Z,101533.44
2023-01-29T17:04:10.966Z,101527.50
2023-01-29T17:06:43.845Z,101531.41
2023-01-29T17:09:22.193Z,101536.66
2023-01-29T17:11:55.958Z,101543.00
2023-01-29T17:14:25.940Z,101529.97
2023-01-29T17:16:56.376Z,101539.16
2023-01-29T17:19:28.481Z,101545.28
2023-01-29T17:21:59.356Z,101545.25
2023-01-29T17:24:27.844Z,101553.19
2023-01-29T17:26:56.464Z,101546.81
2023-01-29T17:29:30.914Z,101557.94
2023-01-29T17:32:01.043Z,101555.78
2023-01-29T17:34:29.538Z,101560.56
2023-01-29T17:36:59.321Z,101555.28
2023-01-29T17:39:28.728Z,101557.34
2023-01-29T17:42:01.363Z,101553.97
2023-01-29T17:44:29.754Z,101551.53
2023-01-29T17:46:58.479Z,101552.06
2023-01-29T17:49:29.364Z,101564.28
2023-01-29T17:52:00.626Z,101561.66
2023-01-29T17:54:28.958Z,101567.97
2023-01-29T17:56:58.265Z,101560.38
2023-01-29T17:59:30.895Z,101558.09
2023-01-29T18:01:59.783Z,101553.53
2023-01-29T18:04:28.044Z,101553.97
2023-01-29T18:06:59.826Z,101556.06
2023-01-29T18:09:28.083Z,101555.53
2023-01-29T18:11:56.846Z,101550.94
2023-01-29T18:14:25.119Z,101551.41
2023-01-29T18:16:53.408Z,101549.13
2023-01-29T18:19:27.649Z,101548.38
2023-01-29T18:21:55.853Z,101555.00
2023-01-29T18:24:26.824Z,101556.50
2023-01-29T18:26:57.074Z,101558.34
2023-01-29T18:29:30.015Z,101555.84
2023-01-29T18:31:58.633Z,101555.84
2023-01-29T18:34:27.850Z,101559.34
2023-01-29T18:36:56.608Z,101555.41
2023-01-29T18:39:27.810Z,101551.47
2023-01-29T18:41:58.669Z,101551.19
2023-01-29T18:44:36.246Z,101556.28
2023-01-29T18:47:05.580Z,101551.97
2023-01-29T18:49:33.608Z,101546.75
2023-01-29T18:52:04.223Z,101543.94
2023-01-29T18:54:33.932Z,101543.19
2023-01-29T18:57:13.072Z,101542.09
2023-01-29T18:59:42.854Z,101541.63
2023-01-29T19:02:15.845Z,101535.47
2023-01-29T19:04:44.301Z,101548.38
2023-01-29T19:07:13.463Z,101543.03
2023-01-29T19:09:46.423Z,101548.91
2023-01-29T19:12:15.371Z,101541.44
2023-01-29T19:14:43.978Z,101541.72
2023-01-29T19:17:12.462Z,101542.19
2023-01-29T19:19:41.071Z,101542.19
2023-01-29T19:22:09.448Z,101547.16
2023-01-29T19:24:39.261Z,101546.41
2023-01-29T19:27:08.984Z,101540.53
2023-01-29T19:29:40.526Z,101540.53
2023-01-29T19:32:09.917Z,101537.50
2023-01-29T19:34:38.091Z,101540.78
2023-01-29T19:37:06.582Z,101541.09
2023-01-29T19:39:35.818Z,101531.53
2023-01-29T19:42:12.895Z,101536.63
2023-01-29T19:44:51.213Z,101532.41
2023-01-29T19:47:22.751Z,101533.16
2023-01-29T19:49:53.714Z,101533.81
2023-01-29T19:52:50.217Z,101535.78
2023-01-29T19:55:22.324Z,101522.66
2023-01-29T19:57:54.513Z,101519.38
2023-01-29T20:00:27.477Z,101520.22
2023-01-29T20:02:56.067Z,101523.94
2023-01-29T20:05:27.158Z,101519.69
2023-01-29T20:07:59.345Z,101523.41
2023-01-29T20:10:30.286Z,101518.84
2023-01-29T20:13:05.817Z,101518.72
2023-01-29T20:15:37.249Z,101512.41
2023-01-29T20:18:11.763Z,101519.06
2023-01-29T20:20:43.566Z,101515.06
2023-01-29T20:23:14.736Z,101519.06
2023-01-29T20:25:46.667Z,101525.78
2023-01-29T20:28:17.833Z,101534.47
2023-01-29T20:30:50.435Z,101527.31
2023-01-29T20:33:21.197Z,101534.72
2023-01-29T20:36:00.100Z,101537.97
2023-01-29T20:38:31.961Z,101543.94
2023-01-29T20:41:04.962Z,101539.81
2023-01-29T20:43:37.626Z,101534.50
2023-01-29T20:46:06.115Z,101536.13
2023-01-29T20:48:35.238Z,101527.66
2023-01-29T20:51:09.358Z,101533.28
2023-01-29T20:53:38.091Z,101534.59
2023-01-29T20:56:11.395Z,101536.22
2023-01-29T20:58:43.759Z,101523.97
2023-01-29T21:01:15.744Z,101527.13
2023-01-29T21:03:49.266Z,101513.84
2023-01-29T21:06:17.428Z,101509.63
2023-01-29T21:08:45.915Z,101497.38
2023-01-29T21:11:18.452Z,101491.63
2023-01-29T21:13:53.161Z,101496.94
2023-01-29T21:16:22.098Z,101497.06
2023-01-29T21:19:06.616Z,101501.94
2023-01-29T21:21:40.309Z,101499.31
2023-01-29T21:24:09.345Z,101493.03
2023-01-29T21:26:48.599Z,101487.59
2023-01-29T21:29:19.834Z,101471.66
2023-01-29T21:31:48.195Z,101460.16
2023-01-29T21:34:16.562Z,101478.69
2023-01-29T21:36:47.987Z,101478.59
2023-01-29T21:39:20.940Z,101475.56
2023-01-29T21:42:08.769Z,101466.13
2023-01-29T21:44:47.005Z,101471.84
2023-01-29T21:47:20.802Z,101468.38
2023-01-29T21:49:52.753Z,101463.38
2023-01-29T21:52:24.813Z,101445.75
2023-01-29T21:54:57.462Z,101434.19
2023-01-29T21:57:26.528Z,101422.78
2023-01-29T21:59:57.812Z,101420.66
2023-01-29T22:02:30.938Z,101413.00
2023-01-29T22:05:17.528Z,101418.97
2023-01-29T22:07:49.547Z,101413.72
2023-01-29T22:10:19.773Z,101420.00
2023-01-29T22:12:50.233Z,101410.97
2023-01-29T22:15:24.437Z,101407.84
2023-01-29T22:17:52.943Z,101395.31
2023-01-29T22:20:29.834Z,101393.97
2023-01-29T22:23:03.479Z,101390.06
2023-01-29T22:25:33.612Z,101389.94
2023-01-29T22:28:04.183Z,101384.50
2023-01-29T22:30:33.801Z,101379.69
2023-01-29T22:33:02.669Z,101382.84
2023-01-29T22:35:36.439Z,101380.75
2023-01-29T22:38:04.777Z,101386.78
2023-01-29T22:40:35.985Z,101381.22
2023-01-29T22:43:12.241Z,101376.34
2023-01-29T22:45:41.940Z,101366.09
2023-01-29T22:48:11.810Z,101364.44
2023-01-29T22:50:41.062Z,101364.44
2023-01-29T22:53:10.392Z,101354.16
2023-01-29T22:55:41.553Z,101350.06
2023-01-29T22:58:10.491Z,101344.63
2023-01-29T23:00:38.647Z,101343.72
2023-01-29T23:03:08.187Z,101337.81
2023-01-29T23:05:36.462Z,101334.63
2023-01-29T23:08:04.633Z,101325.25
2023-01-29T23:10:34.464Z,101326.78
2023-01-29T23:13:02.830Z,101323.88
2023-01-29T23:15:31.468Z,101316.63
2023-01-29T23:18:01.193Z,101319.50
2023-01-29T23:20:30.655Z,101320.25
2023-01-29T23:23:00.387Z,101316.63
2023-01-29T23:25:49.119Z,101311.94
2023-01-29T23:28:16.340Z,101297.84
2023-01-29T23:30:45.245Z,101295.72
2023-01-29T23:33:13.924Z,101302.41
2023-01-29T23:35:46.001Z,101292.25
2023-01-29T23:38:14.250Z,101292.81
2023-01-29T23:40:42.702Z,101285.13
2023-01-29T23:43:12.083Z,101294.47
2023-01-29T23:45:42.529Z,101290.25
2023-01-29T23:48:10.607Z,101292.06
2023-01-29T23:50:39.788Z,101295.38
2023-01-29T23:53:09.811Z,101309.75
2023-01-29T23:55:39.875Z,101317.44
2023-01-29T23:58:08.455Z,101328.03
